sensor_id;sensor_type;location;lat;lon;timestamp;pressure;altitude;pressure_sealevel;temperature;humidity
11314;BME280;5712;48.858;9.206;2022-08-21T00:00:22;98265.25;;;15.19;100.00
11314;BME280;5712;48.858;9.206;2022-08-21T00:02:52;98254.66;;;15.08;100.00
11314;BME280;5712;48.858;9.206;2022-08-21T00:05:20;98255.22;;;15.02;100.00
11314;BME280;5712;48.858;9.206;2022-08-21T00:07:47;98254.16;;;14.93;100.00
11314;BME280;5712;48.858;9.206;2022-08-21T00:10:15;98251.88;;;14.89;100.00
11314;BME280;5712;48.858;9.206;2022-08-21T00:12:43;98251.28;;;14.85;100.00
11314;BME280;5712;48.858;9.206;2022-08-21T00:15:12;98252.84;;;14.88;100.00
11314;BME280;5712;48.858;9.206;2022-08-21T00:17:40;98246.56;;;14.89;100.00
11314;BME280;5712;48.858;9.206;2022-08-21T00:20:09;98246.31;;;14.92;100.00
11314;BME280;5712;48.858;9.206;2022-08-21T00:22:36;98245.34;;;14.93;100.00
11314;BME280;5712;48.858;9.206;2022-08-21T00:25:04;98243.66;;;14.92;100.00
11314;BME280;5712;48.858;9.206;2022-08-21T00:27:32;98246.88;;;14.95;100.00
11314;BME280;5712;48.858;9.206;2022-08-21T00:30:00;98248.28;;;14.90;100.00
11314;BME280;5712;48.858;9.206;2022-08-21T00:32:27;98243.47;;;14.84;100.00
11314;BME280;5712;48.858;9.206;2022-08-21T00:34:54;98253.84;;;14.87;100.00
11314;BME280;5712;48.858;9.206;2022-08-21T00:37:21;98249.22;;;14.89;100.00
11314;BME280;5712;48.858;9.206;2022-08-21T00:39:48;98248.50;;;14.87;100.00
11314;BME280;5712;48.858;9.206;2022-08-21T00:42:14;98249.09;;;14.90;100.00
11314;BME280;5712;48.858;9.206;2022-08-21T00:44:42;98245.72;;;14.88;100.00
11314;BME280;5712;48.858;9.206;2022-08-21T00:47:11;98244.63;;;14.91;100.00
11314;BME280;5712;48.858;9.206;2022-08-21T00:49:39;98241.00;;;14.92;100.00
11314;BME280;5712;48.858;9.206;2022-08-21T00:52:08;98246.31;;;14.92;100.00
11314;BME280;5712;48.858;9.206;2022-08-21T00:54:36;98244.03;;;14.87;100.00
11314;BME280;5712;48.858;9.206;2022-08-21T00:57:09;98243.97;;;14.78;100.00
11314;BME280;5712;48.858;9.206;2022-08-21T00:59:38;98241.38;;;14.67;100.00
11314;BME280;5712;48.858;9.206;2022-08-21T01:02:08;98240.78;;;14.63;100.00
11314;BME280;5712;48.858;9.206;2022-08-21T01:04:37;98236.28;;;14.64;100.00
11314;BME280;5712;48.858;9.206;2022-08-21T01:07:04;98238.25;;;14.62;100.00
11314;BME280;5712;48.858;9.206;2022-08-21T01:09:32;98237.97;;;14.65;100.00
11314;BME280;5712;48.858;9.206;2022-08-21T01:11:59;98228.19;;;14.65;100.00
11314;BME280;5712;48.858;9.206;2022-08-21T01:14:25;98241.09;;;14.70;100.00
11314;BME280;5712;48.858;9.206;2022-08-21T01:16:55;98234.38;;;14.66;100.00
11314;BME280;5712;48.858;9.206;2022-08-21T01:19:23;98236.88;;;14.67;100.00
11314;BME280;5712;48.858;9.206;2022-08-21T01:21:53;98236.28;;;14.64;100.00
11314;BME280;5712;48.858;9.206;2022-08-21T01:24:20;98235.47;;;14.63;100.00
11314;BME280;5712;48.858;9.206;2022-08-21T01:26:47;98234.59;;;14.63;100.00
11314;BME280;5712;48.858;9.206;2022-08-21T01:29:19;98234.88;;;14.60;100.00
11314;BME280;5712;48.858;9.206;2022-08-21T01:31:49;98238.25;;;14.62;100.00
11314;BME280;5712;48.858;9.206;2022-08-21T01:34:16;98234.72;;;14.61;100.00
11314;BME280;5712;48.858;9.206;2022-08-21T01:36:44;98233.91;;;14.61;100.00
11314;BME280;5712;48.858;9.206;2022-08-21T01:39:13;98236.09;;;14.56;100.00
11314;BME280;5712;48.858;9.206;2022-08-21T01:41:40;98228.34;;;14.53;100.00
11314;BME280;5712;48.858;9.206;2022-08-21T01:44:07;98238.69;;;14.46;100.00
11314;BME280;5712;48.858;9.206;2022-08-21T01:46:35;98230.50;;;14.38;100.00
11314;BME280;5712;48.858;9.206;2022-08-21T01:49:02;98222.66;;;14.37;100.00
11314;BME280;5712;48.858;9.206;2022-08-21T01:51:29;98231.84;;;14.33;100.00
11314;BME280;5712;48.858;9.206;2022-08-21T01:53:55;98228.72;;;14.28;100.00
11314;BME280;5712;48.858;9.206;2022-08-21T01:56:24;98231.16;;;14.20;100.00
11314;BME280;5712;48.858;9.206;2022-08-21T01:58:53;98215.34;;;14.07;100.00
11314;BME280;5712;48.858;9.206;2022-08-21T02:01:19;98222.00;;;14.02;100.00
11314;BME280;5712;48.858;9.206;2022-08-21T02:03:46;98217.19;;;13.96;100.00
11314;BME280;5712;48.858;9.206;2022-08-21T02:06:14;98220.09;;;13.93;100.00
11314;BME280;5712;48.858;9.206;2022-08-21T02:08:43;98215.03;;;13.90;100.00
11314;BME280;5712;48.858;9.206;2022-08-21T02:11:10;98214.31;;;13.88;100.00
11314;BME280;5712;48.858;9.206;2022-08-21T02:13:38;98213.34;;;13.89;100.00
11314;BME280;5712;48.858;9.206;2022-08-21T02:16:05;98218.78;;;13.87;100.00
11314;BME280;5712;48.858;9.206;2022-08-21T02:18:33;98212.16;;;13.82;100.00
11314;BME280;5712;48.858;9.206;2022-08-21T02:21:00;98213.75;;;13.73;100.00
11314;BME280;5712;48.858;9.206;2022-08-21T02:23:27;98210.47;;;13.70;100.00
11314;BME280;5712;48.858;9.206;2022-08-21T02:25:54;98200.09;;;13.67;100.00
11314;BME280;5712;48.858;9.206;2022-08-21T02:28:21;98203.97;;;13.63;100.00
11314;BME280;5712;48.858;9.206;2022-08-21T02:30:50;98210.59;;;13.57;100.00
11314;BME280;5712;48.858;9.206;2022-08-21T02:33:18;98210.38;;;13.60;100.00
11314;BME280;5712;48.858;9.206;2022-08-21T02:35:46;98202.53;;;13.59;100.00
11314;BME280;5712;48.858;9.206;2022-08-21T02:38:17;98202.53;;;13.59;100.00
11314;BME280;5712;48.858;9.206;2022-08-21T02:40:46;98205.19;;;13.59;100.00
11314;BME280;5712;48.858;9.206;2022-08-21T02:43:14;98199.66;;;13.62;100.00
11314;BME280;5712;48.858;9.206;2022-08-21T02:45:42;98202.78;;;13.56;100.00
11314;BME280;5712;48.858;9.206;2022-08-21T02:48:13;98197.72;;;13.53;100.00
11314;BME280;5712;48.858;9.206;2022-08-21T02:50:45;98194.34;;;13.51;100.00
11314;BME280;5712;48.858;9.206;2022-08-21T02:53:14;98200.84;;;13.47;100.00
11314;BME280;5712;48.858;9.206;2022-08-21T02:55:43;98203.28;;;13.50;100.00
11314;BME280;5712;48.858;9.206;2022-08-21T02:58:11;98203.28;;;13.50;100.00
11314;BME280;5712;48.858;9.206;2022-08-21T03:00:38;98200.38;;;13.53;100.00
11314;BME280;5712;48.858;9.206;2022-08-21T03:03:05;98203.88;;;13.53;100.00
11314;BME280;5712;48.858;9.206;2022-08-21T03:05:35;98200.47;;;13.51;100.00
11314;BME280;5712;48.858;9.206;2022-08-21T03:08:05;98196.03;;;13.52;100.00
11314;BME280;5712;48.858;9.206;2022-08-21T03:10:35;98196.03;;;13.52;100.00
11314;BME280;5712;48.858;9.206;2022-08-21T03:13:02;98193.25;;;13.53;100.00
11314;BME280;5712;48.858;9.206;2022-08-21T03:15:29;98190.72;;;13.52;100.00
11314;BME280;5712;48.858;9.206;2022-08-21T03:17:57;98191.53;;;13.52;100.00
11314;BME280;5712;48.858;9.206;2022-08-21T03:20:26;98196.41;;;13.47;100.00
11314;BME280;5712;48.858;9.206;2022-08-21T03:22:55;98198.09;;;13.37;100.00
11314;BME280;5712;48.858;9.206;2022-08-21T03:25:24;98198.34;;;13.34;100.00
11314;BME280;5712;48.858;9.206;2022-08-21T03:27:51;98190.50;;;13.33;100.00
11314;BME280;5712;48.858;9.206;2022-08-21T03:30:19;98206.66;;;13.30;100.00
11314;BME280;5712;48.858;9.206;2022-08-21T03:32:47;98198.94;;;13.27;100.00
11314;BME280;5712;48.858;9.206;2022-08-21T03:35:14;98205.34;;;13.24;100.00
11314;BME280;5712;48.858;9.206;2022-08-21T03:37:41;98203.03;;;13.20;100.00
11314;BME280;5712;48.858;9.206;2022-08-21T03:40:11;98204.47;;;13.13;100.00
11314;BME280;5712;48.858;9.206;2022-08-21T03:42:38;98206.28;;;13.12;100.00
11314;BME280;5712;48.858;9.206;2022-08-21T03:45:06;98202.06;;;13.10;100.00
11314;BME280;5712;48.858;9.206;2022-08-21T03:47:32;98197.94;;;13.06;100.00
11314;BME280;5712;48.858;9.206;2022-08-21T03:50:00;98201.56;;;13.05;100.00
11314;BME280;5712;48.858;9.206;2022-08-21T03:52:27;98197.00;;;13.07;100.00
11314;BME280;5712;48.858;9.206;2022-08-21T03:54:53;98203.25;;;13.06;100.00
11314;BME280;5712;48.858;9.206;2022-08-21T03:57:21;98199.88;;;13.04;100.00
11314;BME280;5712;48.858;9.206;2022-08-21T03:59:48;98203.25;;;13.06;100.00
11314;BME280;5712;48.858;9.206;2022-08-21T04:02:17;98206.16;;;13.03;100.00
11314;BME280;5712;48.858;9.206;2022-08-21T04:04:44;98211.34;;;13.04;100.00
11314;BME280;5712;48.858;9.206;2022-08-21T04:07:11;98209.03;;;13.00;100.00
11314;BME280;5712;48.858;9.206;2022-08-21T04:09:38;98209.66;;;13.03;100.00
11314;BME280;5712;48.858;9.206;2022-08-21T04:12:05;98215.69;;;13.05;100.00
11314;BME280;5712;48.858;9.206;2022-08-21T04:14:33;98207.13;;;13.02;100.00
11314;BME280;5712;48.858;9.206;2022-08-21T04:17:00;98212.44;;;13.02;100.00
11314;BME280;5712;48.858;9.206;2022-08-21T04:19:26;98209.66;;;13.03;100.00
11314;BME280;5712;48.858;9.206;2022-08-21T04:21:53;98219.78;;;13.09;100.00
11314;BME280;5712;48.858;9.206;2022-08-21T04:24:20;98218.00;;;13.10;100.00
11314;BME280;5712;48.858;9.206;2022-08-21T04:26:46;98225.69;;;13.13;100.00
11314;BME280;5712;48.858;9.206;2022-08-21T04:29:13;98224.63;;;13.15;100.00
11314;BME280;5712;48.858;9.206;2022-08-21T04:31:41;98220.88;;;13.18;100.00
11314;BME280;5712;48.858;9.206;2022-08-21T04:34:09;98227.53;;;13.23;100.00
11314;BME280;5712;48.858;9.206;2022-08-21T04:36:36;98230.03;;;13.25;100.00
11314;BME280;5712;48.858;9.206;2022-08-21T04:39:03;98237.91;;;13.26;100.00
11314;BME280;5712;48.858;9.206;2022-08-21T04:41:30;98240.19;;;13.31;100.00
11314;BME280;5712;48.858;9.206;2022-08-21T04:43:56;98242.63;;;13.34;100.00
11314;BME280;5712;48.858;9.206;2022-08-21T04:46:24;98241.41;;;13.38;100.00
11314;BME280;5712;48.858;9.206;2022-08-21T04:48:52;98256.00;;;13.43;100.00
11314;BME280;5712;48.858;9.206;2022-08-21T04:51:23;98248.53;;;13.48;100.00
11314;BME280;5712;48.858;9.206;2022-08-21T04:53:52;98242.97;;;13.51;100.00
11314;BME280;5712;48.858;9.206;2022-08-21T04:56:22;98242.63;;;13.56;100.00
11314;BME280;5712;48.858;9.206;2022-08-21T04:58:51;98249.97;;;13.63;100.00
11314;BME280;5712;48.858;9.206;2022-08-21T05:01:21;98243.34;;;13.69;100.00
11314;BME280;5712;48.858;9.206;2022-08-21T05:03:52;98252.72;;;13.73;100.00
11314;BME280;5712;48.858;9.206;2022-08-21T05:06:20;98253.91;;;13.80;100.00
11314;BME280;5712;48.858;9.206;2022-08-21T05:08:48;98258.75;;;13.86;100.00
11314;BME280;5712;48.858;9.206;2022-08-21T05:11:17;98245.94;;;13.91;100.00
11314;BME280;5712;48.858;9.206;2022-08-21T05:13:44;98256.06;;;13.97;100.00
11314;BME280;5712;48.858;9.206;2022-08-21T05:16:11;98250.03;;;14.06;100.00
11314;BME280;5712;48.858;9.206;2022-08-21T05:18:38;98258.72;;;14.08;100.00
11314;BME280;5712;48.858;9.206;2022-08-21T05:21:06;98261.84;;;14.13;100.00
11314;BME280;5712;48.858;9.206;2022-08-21T05:23:33;98270.06;;;14.21;100.00
11314;BME280;5712;48.858;9.206;2022-08-21T05:25:59;98271.25;;;14.28;100.00
11314;BME280;5712;48.858;9.206;2022-08-21T05:28:26;98274.59;;;14.41;100.00
11314;BME280;5712;48.858;9.206;2022-08-21T05:30:53;98275.78;;;14.48;100.00
11314;BME280;5712;48.858;9.206;2022-08-21T05:33:20;98274.03;;;14.58;100.00
11314;BME280;5712;48.858;9.206;2022-08-21T05:35:49;98277.63;;;14.68;100.00
11314;BME280;5712;48.858;9.206;2022-08-21T05:38:17;98284.84;;;14.77;100.00
11314;BME280;5712;48.858;9.206;2022-08-21T05:40:44;98277.78;;;14.87;100.00
11314;BME280;5712;48.858;9.206;2022-08-21T05:43:11;98271.69;;;14.96;100.00
11314;BME280;5712;48.858;9.206;2022-08-21T05:45:38;98284.09;;;15.06;100.00
11314;BME280;5712;48.858;9.206;2022-08-21T05:48:06;98274.22;;;15.18;100.00
11314;BME280;5712;48.858;9.206;2022-08-21T05:50:33;98277.91;;;15.26;100.00
11314;BME280;5712;48.858;9.206;2022-08-21T05:53:00;98282.84;;;15.31;100.00
11314;BME280;5712;48.858;9.206;2022-08-21T05:55:28;98289.09;;;15.41;100.00
11314;BME280;5712;48.858;9.206;2022-08-21T05:57:56;98288.63;;;15.56;100.00
11314;BME280;5712;48.858;9.206;2022-08-21T06:00:22;98286.13;;;16.03;100.00
11314;BME280;5712;48.858;9.206;2022-08-21T06:02:49;98281.78;;;16.70;100.00
11314;BME280;5712;48.858;9.206;2022-08-21T06:05:16;98284.25;;;17.38;100.00
11314;BME280;5712;48.858;9.206;2022-08-21T06:07:43;98292.78;;;17.97;100.00
11314;BME280;5712;48.858;9.206;2022-08-21T06:10:10;98292.47;;;18.54;100.00
11314;BME280;5712;48.858;9.206;2022-08-21T06:12:38;98292.63;;;19.23;96.86
11314;BME280;5712;48.858;9.206;2022-08-21T06:15:06;98297.66;;;20.02;92.17
11314;BME280;5712;48.858;9.206;2022-08-21T06:17:33;98299.59;;;20.67;85.64
11314;BME280;5712;48.858;9.206;2022-08-21T06:19:59;98296.66;;;21.18;82.02
11314;BME280;5712;48.858;9.206;2022-08-21T06:22:26;98302.69;;;21.44;78.34
11314;BME280;5712;48.858;9.206;2022-08-21T06:24:54;98304.22;;;21.39;77.95
11314;BME280;5712;48.858;9.206;2022-08-21T06:27:20;98306.91;;;20.91;80.10
11314;BME280;5712;48.858;9.206;2022-08-21T06:29:48;98304.56;;;20.05;84.81
11314;BME280;5712;48.858;9.206;2022-08-21T06:32:15;98310.16;;;19.35;89.00
11314;BME280;5712;48.858;9.206;2022-08-21T06:34:41;98304.88;;;18.90;91.62
11314;BME280;5712;48.858;9.206;2022-08-21T06:37:08;98303.09;;;18.64;93.63
11314;BME280;5712;48.858;9.206;2022-08-21T06:39:35;98305.75;;;18.46;95.13
11314;BME280;5712;48.858;9.206;2022-08-21T06:42:02;98295.13;;;18.37;96.30
11314;BME280;5712;48.858;9.206;2022-08-21T06:44:29;98292.75;;;18.34;96.64
11314;BME280;5712;48.858;9.206;2022-08-21T06:46:58;98297.50;;;18.30;95.64
11314;BME280;5712;48.858;9.206;2022-08-21T06:49:25;98291.22;;;18.31;96.29
11314;BME280;5712;48.858;9.206;2022-08-21T06:51:51;98291.22;;;18.31;97.51
11314;BME280;5712;48.858;9.206;2022-08-21T06:54:18;98295.66;;;18.40;98.37
11314;BME280;5712;48.858;9.206;2022-08-21T06:56:45;98286.88;;;18.48;99.19
11314;BME280;5712;48.858;9.206;2022-08-21T06:59:11;98290.78;;;18.53;98.59
11314;BME280;5712;48.858;9.206;2022-08-21T07:01:38;98287.88;;;18.64;98.09
11314;BME280;5712;48.858;9.206;2022-08-21T07:04:07;98290.63;;;18.72;97.40
11314;BME280;5712;48.858;9.206;2022-08-21T07:06:34;98290.03;;;18.78;95.29
11314;BME280;5712;48.858;9.206;2022-08-21T07:09:01;98282.75;;;18.88;94.63
11314;BME280;5712;48.858;9.206;2022-08-21T07:11:28;98283.00;;;18.95;91.56
11314;BME280;5712;48.858;9.206;2022-08-21T07:13:55;98283.88;;;19.03;89.04
11314;BME280;5712;48.858;9.206;2022-08-21T07:16:23;98282.97;;;19.12;88.08
11314;BME280;5712;48.858;9.206;2022-08-21T07:18:50;98279.09;;;19.24;87.51
11314;BME280;5712;48.858;9.206;2022-08-21T07:21:18;98282.19;;;19.37;88.36
11314;BME280;5712;48.858;9.206;2022-08-21T07:23:47;98278.41;;;19.48;86.91
11314;BME280;5712;48.858;9.206;2022-08-21T07:26:17;98279.97;;;19.58;86.57
11314;BME280;5712;48.858;9.206;2022-08-21T07:28:45;98284.91;;;19.71;86.50
11314;BME280;5712;48.858;9.206;2022-08-21T07:31:14;98283.13;;;19.79;84.88
11314;BME280;5712;48.858;9.206;2022-08-21T07:33:41;98286.53;;;19.89;82.81
11314;BME280;5712;48.858;9.206;2022-08-21T07:36:08;98284.56;;;19.99;79.13
11314;BME280;5712;48.858;9.206;2022-08-21T07:38:37;98278.03;;;20.02;76.83
11314;BME280;5712;48.858;9.206;2022-08-21T07:41:20;98285.03;;;20.20;74.99
11314;BME280;5712;48.858;9.206;2022-08-21T07:43:47;98280.34;;;20.22;76.39
11314;BME280;5712;48.858;9.206;2022-08-21T07:46:14;98276.78;;;20.22;72.41
11314;BME280;5712;48.858;9.206;2022-08-21T07:48:41;98281.69;;;20.26;73.72
11314;BME280;5712;48.858;9.206;2022-08-21T07:51:10;98280.72;;;20.35;75.75
11314;BME280;5712;48.858;9.206;2022-08-21T07:53:38;98276.00;;;20.29;75.23
11314;BME280;5712;48.858;9.206;2022-08-21T07:56:06;98277.03;;;20.36;76.96
11314;BME280;5712;48.858;9.206;2022-08-21T07:58:34;98272.34;;;20.46;76.68
11314;BME280;5712;48.858;9.206;2022-08-21T08:01:00;98269.19;;;20.59;77.04
11314;BME280;5712;48.858;9.206;2022-08-21T08:03:27;98264.50;;;20.61;70.72
11314;BME280;5712;48.858;9.206;2022-08-21T08:05:54;98260.47;;;20.65;69.68
11314;BME280;5712;48.858;9.206;2022-08-21T08:08:21;98271.03;;;20.66;69.29
11314;BME280;5712;48.858;9.206;2022-08-21T08:10:49;98268.72;;;20.79;69.25
11314;BME280;5712;48.858;9.206;2022-08-21T08:13:16;98268.03;;;20.85;67.48
11314;BME280;5712;48.858;9.206;2022-08-21T08:15:43;98257.69;;;20.90;67.40
11314;BME280;5712;48.858;9.206;2022-08-21T08:18:10;98257.34;;;21.01;66.97
11314;BME280;5712;48.858;9.206;2022-08-21T08:20:36;98263.41;;;21.11;69.13
11314;BME280;5712;48.858;9.206;2022-08-21T08:23:03;98258.00;;;21.27;70.63
11314;BME280;5712;48.858;9.206;2022-08-21T08:25:30;98262.38;;;21.36;66.53
11314;BME280;5712;48.858;9.206;2022-08-21T08:27:58;98257.66;;;21.54;64.91
11314;BME280;5712;48.858;9.206;2022-08-21T08:30:24;98257.13;;;21.59;67.51
11314;BME280;5712;48.858;9.206;2022-08-21T08:32:51;98253.25;;;21.69;69.12
11314;BME280;5712;48.858;9.206;2022-08-21T08:35:18;98250.72;;;21.76;67.79
11314;BME280;5712;48.858;9.206;2022-08-21T08:37:45;98250.88;;;21.82;67.30
11314;BME280;5712;48.858;9.206;2022-08-21T08:40:14;98249.50;;;21.86;65.94
11314;BME280;5712;48.858;9.206;2022-08-21T08:42:46;98247.47;;;21.88;64.32
11314;BME280;5712;48.858;9.206;2022-08-21T08:45:16;98238.06;;;21.92;65.07
11314;BME280;5712;48.858;9.206;2022-08-21T08:47:46;98238.34;;;22.05;66.86
11314;BME280;5712;48.858;9.206;2022-08-21T08:50:18;98241.47;;;22.17;64.94
11314;BME280;5712;48.858;9.206;2022-08-21T08:52:49;98232.19;;;22.27;65.57
11314;BME280;5712;48.858;9.206;2022-08-21T08:55:21;98233.47;;;22.31;64.60
11314;BME280;5712;48.858;9.206;2022-08-21T08:57:51;98229.25;;;22.45;61.07
11314;BME280;5712;48.858;9.206;2022-08-21T09:00:21;98225.53;;;22.46;60.30
11314;BME280;5712;48.858;9.206;2022-08-21T09:02:50;98230.69;;;22.55;62.92
11314;BME280;5712;48.858;9.206;2022-08-21T09:05:22;98225.06;;;22.65;61.57
11314;BME280;5712;48.858;9.206;2022-08-21T09:08:03;98220.63;;;22.72;60.94
11314;BME280;5712;48.858;9.206;2022-08-21T09:10:41;98228.66;;;22.80;60.02
11314;BME280;5712;48.858;9.206;2022-08-21T09:13:19;98228.66;;;22.80;59.27
11314;BME280;5712;48.858;9.206;2022-08-21T09:15:54;98226.16;;;22.78;59.35
11314;BME280;5712;48.858;9.206;2022-08-21T09:18:31;98221.38;;;22.88;60.60
11314;BME280;5712;48.858;9.206;2022-08-21T09:21:09;98222.41;;;23.02;57.93
11314;BME280;5712;48.858;9.206;2022-08-21T09:23:47;98220.91;;;22.99;60.34
11314;BME280;5712;48.858;9.206;2022-08-21T09:26:18;98223.63;;;23.22;55.52
11314;BME280;5712;48.858;9.206;2022-08-21T09:28:52;98218.25;;;23.22;55.39
11314;BME280;5712;48.858;9.206;2022-08-21T09:31:24;98216.06;;;23.17;55.77
11314;BME280;5712;48.858;9.206;2022-08-21T09:33:57;98213.66;;;23.22;53.99
11314;BME280;5712;48.858;9.206;2022-08-21T09:36:28;98211.25;;;23.27;55.63
11314;BME280;5712;48.858;9.206;2022-08-21T09:38:57;98219.84;;;23.45;53.21
11314;BME280;5712;48.858;9.206;2022-08-21T09:41:28;98214.81;;;23.42;52.29
11314;BME280;5712;48.858;9.206;2022-08-21T09:43:56;98209.22;;;23.29;53.01
11314;BME280;5712;48.858;9.206;2022-08-21T09:46:26;98209.22;;;23.29;53.49
11314;BME280;5712;48.858;9.206;2022-08-21T09:48:54;98206.81;;;23.34;55.15
11314;BME280;5712;48.858;9.206;2022-08-21T09:51:25;98202.75;;;23.53;56.15
11314;BME280;5712;48.858;9.206;2022-08-21T09:53:55;98202.47;;;23.62;55.79
11314;BME280;5712;48.858;9.206;2022-08-21T09:56:28;98201.72;;;23.83;50.95
11314;BME280;5712;48.858;9.206;2022-08-21T09:59:19;98196.78;;;23.86;51.18
11314;BME280;5712;48.858;9.206;2022-08-21T10:01:50;98191.94;;;23.96;51.37
11314;BME280;5712;48.858;9.206;2022-08-21T10:04:20;98193.56;;;23.91;50.21
11314;BME280;5712;48.858;9.206;2022-08-21T10:06:47;98198.50;;;23.87;50.94
11314;BME280;5712;48.858;9.206;2022-08-21T10:09:17;98189.00;;;23.91;53.53
11314;BME280;5712;48.858;9.206;2022-08-21T10:11:53;98190.44;;;24.08;55.41
11314;BME280;5712;48.858;9.206;2022-08-21T10:14:37;98190.22;;;24.24;55.27
11314;BME280;5712;48.858;9.206;2022-08-21T10:17:15;98183.53;;;24.20;51.58
11314;BME280;5712;48.858;9.206;2022-08-21T10:19:48;98181.09;;;24.25;53.34
11314;BME280;5712;48.858;9.206;2022-08-21T10:22:28;98180.34;;;24.31;54.43
11314;BME280;5712;48.858;9.206;2022-08-21T10:25:06;98183.44;;;24.49;53.70
11314;BME280;5712;48.858;9.206;2022-08-21T10:27:39;98170.56;;;24.51;54.44
11314;BME280;5712;48.858;9.206;2022-08-21T10:30:13;98176.66;;;24.74;54.08
11314;BME280;5712;48.858;9.206;2022-08-21T10:32:57;98172.56;;;24.78;54.38
11314;BME280;5712;48.858;9.206;2022-08-21T10:35:29;98168.41;;;24.82;55.30
11314;BME280;5712;48.858;9.206;2022-08-21T10:38:31;98166.41;;;24.91;52.38
11314;BME280;5712;48.858;9.206;2022-08-21T10:41:09;98165.63;;;24.97;51.95
11314;BME280;5712;48.858;9.206;2022-08-21T10:43:47;98162.41;;;25.08;51.87
11314;BME280;5712;48.858;9.206;2022-08-21T10:46:22;98159.50;;;25.09;49.53
11314;BME280;5712;48.858;9.206;2022-08-21T10:48:58;98164.91;;;25.09;50.23
11314;BME280;5712;48.858;9.206;2022-08-21T10:51:34;98166.41;;;25.12;48.59
11314;BME280;5712;48.858;9.206;2022-08-21T10:54:09;98160.75;;;25.07;47.75
11314;BME280;5712;48.858;9.206;2022-08-21T10:56:39;98159.50;;;25.09;49.51
11314;BME280;5712;48.858;9.206;2022-08-21T10:59:24;98152.88;;;25.12;49.59
11314;BME280;5712;48.858;9.206;2022-08-21T11:01:58;98157.94;;;25.21;50.14
11314;BME280;5712;48.858;9.206;2022-08-21T11:04:30;98155.16;;;25.36;50.05
11314;BME280;5712;48.858;9.206;2022-08-21T11:07:02;98158.31;;;25.39;47.37
11314;BME280;5712;48.858;9.206;2022-08-21T11:09:30;98154.94;;;25.37;48.54
11314;BME280;5712;48.858;9.206;2022-08-21T11:12:02;98148.72;;;25.37;47.06
11314;BME280;5712;48.858;9.206;2022-08-21T11:14:34;98142.66;;;25.07;46.04
11314;BME280;5712;48.858;9.206;2022-08-21T11:17:07;98143.03;;;25.04;46.94
11314;BME280;5712;48.858;9.206;2022-08-21T11:19:42;98137.47;;;25.12;47.65
11314;BME280;5712;48.858;9.206;2022-08-21T11:22:15;98139.91;;;25.28;47.74
11314;BME280;5712;48.858;9.206;2022-08-21T11:24:47;98141.56;;;25.29;47.96
11314;BME280;5712;48.858;9.206;2022-08-21T11:27:22;98134.56;;;25.35;47.01
11314;BME280;5712;48.858;9.206;2022-08-21T11:29:52;98130.22;;;25.40;46.17
11314;BME280;5712;48.858;9.206;2022-08-21T11:32:46;98132.66;;;25.35;44.93
11314;BME280;5712;48.858;9.206;2022-08-21T11:35:25;98133.97;;;25.18;44.96
11314;BME280;5712;48.858;9.206;2022-08-21T11:38:03;98133.59;;;25.21;44.73
11314;BME280;5712;48.858;9.206;2022-08-21T11:40:43;98134.91;;;25.25;44.79
11314;BME280;5712;48.858;9.206;2022-08-21T11:43:19;98123.88;;;25.27;45.71
11314;BME280;5712;48.858;9.206;2022-08-21T11:45:51;98121.91;;;25.42;46.41
11314;BME280;5712;48.858;9.206;2022-08-21T11:48:34;98123.59;;;25.49;44.49
11314;BME280;5712;48.858;9.206;2022-08-21T11:51:09;98114.66;;;25.49;41.77
11314;BME280;5712;48.858;9.206;2022-08-21T11:53:41;98109.84;;;25.44;43.15
11314;BME280;5712;48.858;9.206;2022-08-21T11:56:19;98121.09;;;25.48;44.52
11314;BME280;5712;48.858;9.206;2022-08-21T11:58:51;98113.97;;;25.74;42.82
11314;BME280;5712;48.858;9.206;2022-08-21T12:01:22;98113.72;;;25.69;41.29
11314;BME280;5712;48.858;9.206;2022-08-21T12:03:55;98114.09;;;25.66;41.35
11314;BME280;5712;48.858;9.206;2022-08-21T12:06:32;98112.81;;;25.56;40.61
11314;BME280;5712;48.858;9.206;2022-08-21T12:09:01;98115.69;;;25.48;40.54
11314;BME280;5712;48.858;9.206;2022-08-21T12:11:28;98115.69;;;25.48;41.25
11314;BME280;5712;48.858;9.206;2022-08-21T12:13:57;98113.56;;;25.43;41.10
11314;BME280;5712;48.858;9.206;2022-08-21T12:16:30;98108.94;;;25.37;41.50
11314;BME280;5712;48.858;9.206;2022-08-21T12:19:04;98104.78;;;25.35;42.04
11314;BME280;5712;48.858;9.206;2022-08-21T12:21:33;98096.13;;;25.52;41.30
11314;BME280;5712;48.858;9.206;2022-08-21T12:24:04;98108.03;;;25.58;41.13
11314;BME280;5712;48.858;9.206;2022-08-21T12:26:34;98105.13;;;25.59;40.25
11314;BME280;5712;48.858;9.206;2022-08-21T12:29:11;98094.28;;;25.59;41.97
11314;BME280;5712;48.858;9.206;2022-08-21T12:31:49;98087.03;;;25.66;42.68
11314;BME280;5712;48.858;9.206;2022-08-21T12:34:17;98087.56;;;25.89;42.55
11314;BME280;5712;48.858;9.206;2022-08-21T12:36:52;98084.72;;;26.04;42.21
11314;BME280;5712;48.858;9.206;2022-08-21T12:39:23;98082.00;;;26.04;41.24
11314;BME280;5712;48.858;9.206;2022-08-21T12:41:55;98078.06;;;26.13;41.87
11314;BME280;5712;48.858;9.206;2022-08-21T12:44:29;98078.09;;;26.19;40.73
11314;BME280;5712;48.858;9.206;2022-08-21T12:47:03;98069.28;;;25.98;40.74
11314;BME280;5712;48.858;9.206;2022-08-21T12:49:32;98074.91;;;25.96;42.51
11314;BME280;5712;48.858;9.206;2022-08-21T12:52:09;98074.75;;;26.17;40.75
11314;BME280;5712;48.858;9.206;2022-08-21T12:54:40;98072.03;;;26.11;40.38
11314;BME280;5712;48.858;9.206;2022-08-21T12:57:08;98071.41;;;26.15;41.15
11314;BME280;5712;48.858;9.206;2022-08-21T12:59:37;98073.06;;;26.16;39.99
11314;BME280;5712;48.858;9.206;2022-08-21T13:02:13;98060.13;;;26.12;41.64
11314;BME280;5712;48.858;9.206;2022-08-21T13:04:42;98065.16;;;26.21;42.38
11314;BME280;5712;48.858;9.206;2022-08-21T13:07:13;98068.31;;;26.31;42.53
11314;BME280;5712;48.858;9.206;2022-08-21T13:09:48;98071.66;;;26.40;41.99
11314;BME280;5712;48.858;9.206;2022-08-21T13:12:17;98067.94;;;26.47;41.53
11314;BME280;5712;48.858;9.206;2022-08-21T13:14:47;98067.50;;;26.50;39.34
11314;BME280;5712;48.858;9.206;2022-08-21T13:17:17;98064.78;;;26.37;41.62